North Plainfield, New Jersey
Current Conditions -  °F | °C
As of 11:15 AM on Wednesday 28 Jan 2015 (Local Time) from KLDJ Reporting Station
Clear Clear  
Wind Chill: 22°   Ceiling: Unl
Heat Index: 31°   Visibility: 10mi
Dew Point: 13°   Wind: 10mph
Humidity: 47%   Direction: 330°NNW
Pressure: 30.1"   Gusts: NA
Location:  40.62°N, 74.43°W
Report Text: KLDJ 281615Z AUTO 33009KT 10SM CLR M01/M11 A3010 RMK AO2 T10071108
Loading
Personal Weather Stations






























Interactive Weather Map New forecast layout! Learn more

10-Day Weather Forecast

Advertisements
Track Severe Weather on mobile